sensor_id;sensor_type;location;lat;lon;timestamp;pressure;altitude;pressure_sealevel;temperature;humidity
59419;BME280;45224;50.904;6.038;2023-04-20T00:00:26;100265.97;;;6.18;52.43
59419;BME280;45224;50.904;6.038;2023-04-20T00:01:57;100267.63;;;6.16;52.42
59419;BME280;45224;50.904;6.038;2023-04-20T00:03:32;100268.41;;;6.13;52.35
59419;BME280;45224;50.904;6.038;2023-04-20T00:05:04;100270.16;;;6.14;52.50
59419;BME280;45224;50.904;6.038;2023-04-20T00:06:36;100261.56;;;6.12;52.68
59419;BME280;45224;50.904;6.038;2023-04-20T00:08:06;100252.97;;;6.12;52.52
59419;BME280;45224;50.904;6.038;2023-04-20T00:09:37;100255.53;;;6.12;52.23
59419;BME280;45224;50.904;6.038;2023-04-20T00:11:07;100252.06;;;6.10;52.45
59419;BME280;45224;50.904;6.038;2023-04-20T00:12:38;100247.59;;;6.01;52.26
59419;BME280;45224;50.904;6.038;2023-04-20T00:14:08;100247.81;;;6.10;52.08
59419;BME280;45224;50.904;6.038;2023-04-20T00:15:39;100241.81;;;6.10;51.83
59419;BME280;45224;50.904;6.038;2023-04-20T00:17:09;100246.13;;;6.11;51.98
59419;BME280;45224;50.904;6.038;2023-04-20T00:18:40;100240.88;;;6.06;52.01
59419;BME280;45224;50.904;6.038;2023-04-20T00:20:11;100239.97;;;6.04;52.13
59419;BME280;45224;50.904;6.038;2023-04-20T00:21:42;100248.69;;;6.11;52.08
59419;BME280;45224;50.904;6.038;2023-04-20T00:23:12;100242.78;;;6.15;51.93
59419;BME280;45224;50.904;6.038;2023-04-20T00:24:43;100237.59;;;6.13;51.68
59419;BME280;45224;50.904;6.038;2023-04-20T00:26:13;100235.03;;;6.13;51.80
59419;BME280;45224;50.904;6.038;2023-04-20T00:27:46;100231.63;;;6.13;51.76
59419;BME280;45224;50.904;6.038;2023-04-20T00:29:16;100231.78;;;6.19;51.56
59419;BME280;45224;50.904;6.038;2023-04-20T00:30:47;100231.13;;;6.28;51.41
59419;BME280;45224;50.904;6.038;2023-04-20T00:32:17;100225.34;;;6.36;51.33
59419;BME280;45224;50.904;6.038;2023-04-20T00:33:48;100220.63;;;6.55;50.96
59419;BME280;45224;50.904;6.038;2023-04-20T00:35:18;100215.56;;;6.58;51.38
59419;BME280;45224;50.904;6.038;2023-04-20T00:36:48;100197.53;;;6.55;51.31
59419;BME280;45224;50.904;6.038;2023-04-20T00:38:19;100214.94;;;6.68;51.30
59419;BME280;45224;50.904;6.038;2023-04-20T00:39:50;100214.78;;;6.61;51.26
59419;BME280;45224;50.904;6.038;2023-04-20T00:41:21;100210.22;;;6.49;52.03
59419;BME280;45224;50.904;6.038;2023-04-20T00:42:51;100209.06;;;6.36;52.34
59419;BME280;45224;50.904;6.038;2023-04-20T00:44:22;100210.06;;;6.43;52.15
59419;BME280;45224;50.904;6.038;2023-04-20T00:45:52;100204.91;;;6.41;52.19
59419;BME280;45224;50.904;6.038;2023-04-20T00:47:23;100201.91;;;6.22;53.02
59419;BME280;45224;50.904;6.038;2023-04-20T00:48:53;100205.78;;;6.07;53.00
59419;BME280;45224;50.904;6.038;2023-04-20T00:50:25;100207.13;;;6.26;53.09
59419;BME280;45224;50.904;6.038;2023-04-20T00:51:59;100204.16;;;6.10;53.27
59419;BME280;45224;50.904;6.038;2023-04-20T00:53:30;100201.19;;;5.95;53.08
59419;BME280;45224;50.904;6.038;2023-04-20T00:55:01;100208.84;;;5.93;53.55
59419;BME280;45224;50.904;6.038;2023-04-20T00:56:33;100200.94;;;5.85;53.47
59419;BME280;45224;50.904;6.038;2023-04-20T00:58:04;100198.59;;;5.93;53.01
59419;BME280;45224;50.904;6.038;2023-04-20T00:59:36;100200.94;;;5.85;53.09
59419;BME280;45224;50.904;6.038;2023-04-20T01:01:06;100195.13;;;5.91;52.97
59419;BME280;45224;50.904;6.038;2023-04-20T01:02:38;100188.72;;;6.09;52.37
59419;BME280;45224;50.904;6.038;2023-04-20T01:04:11;100186.38;;;6.18;52.38
59419;BME280;45224;50.904;6.038;2023-04-20T01:05:41;100187.00;;;6.08;52.47
59419;BME280;45224;50.904;6.038;2023-04-20T01:07:12;100194.97;;;5.85;52.81
59419;BME280;45224;50.904;6.038;2023-04-20T01:08:47;100188.59;;;6.02;52.77
59419;BME280;45224;50.904;6.038;2023-04-20T01:10:18;100179.41;;;6.12;52.29
59419;BME280;45224;50.904;6.038;2023-04-20T01:11:48;100184.59;;;6.14;52.48
59419;BME280;45224;50.904;6.038;2023-04-20T01:13:20;100182.22;;;6.23;51.69
59419;BME280;45224;50.904;6.038;2023-04-20T01:14:50;100184.44;;;6.08;52.30
59419;BME280;45224;50.904;6.038;2023-04-20T01:16:21;100184.84;;;5.91;52.60
59419;BME280;45224;50.904;6.038;2023-04-20T01:17:52;100179.81;;;5.94;52.43
59419;BME280;45224;50.904;6.038;2023-04-20T01:19:22;100171.09;;;5.89;52.81
59419;BME280;45224;50.904;6.038;2023-04-20T01:20:53;100176.38;;;5.95;52.15
59419;BME280;45224;50.904;6.038;2023-04-20T01:22:24;100175.34;;;5.87;52.73
59419;BME280;45224;50.904;6.038;2023-04-20T01:23:54;100163.94;;;5.76;52.23
59419;BME280;45224;50.904;6.038;2023-04-20T01:25:25;100169.38;;;5.88;52.49
59419;BME280;45224;50.904;6.038;2023-04-20T01:26:56;100169.53;;;5.94;52.20
59419;BME280;45224;50.904;6.038;2023-04-20T01:28:27;100163.00;;;6.06;51.40
59419;BME280;45224;50.904;6.038;2023-04-20T01:29:58;100151.06;;;6.08;51.53
59419;BME280;45224;50.904;6.038;2023-04-20T01:31:28;100152.50;;;5.96;51.97
59419;BME280;45224;50.904;6.038;2023-04-20T01:33:01;100157.25;;;5.82;52.28
59419;BME280;45224;50.904;6.038;2023-04-20T01:34:32;100158.44;;;5.62;52.30
59419;BME280;45224;50.904;6.038;2023-04-20T01:36:03;100143.38;;;5.42;52.58
59419;BME280;45224;50.904;6.038;2023-04-20T01:37:35;100148.00;;;5.54;52.47
59419;BME280;45224;50.904;6.038;2023-04-20T01:39:06;100147.00;;;5.49;52.44
59419;BME280;45224;50.904;6.038;2023-04-20T01:40:38;100143.00;;;5.59;52.13
59419;BME280;45224;50.904;6.038;2023-04-20T01:42:08;100138.63;;;5.56;52.28
59419;BME280;45224;50.904;6.038;2023-04-20T01:43:39;100138.78;;;5.62;51.97
59419;BME280;45224;50.904;6.038;2023-04-20T01:45:10;100139.78;;;5.67;51.85
59419;BME280;45224;50.904;6.038;2023-04-20T01:46:40;100141.03;;;5.50;51.89
59419;BME280;45224;50.904;6.038;2023-04-20T01:48:11;100144.56;;;5.55;52.14
59419;BME280;45224;50.904;6.038;2023-04-20T01:49:41;100135.28;;;5.59;52.28
59419;BME280;45224;50.904;6.038;2023-04-20T01:51:12;100137.91;;;5.60;51.61
59419;BME280;45224;50.904;6.038;2023-04-20T01:52:43;100140.41;;;5.59;52.10
59419;BME280;45224;50.904;6.038;2023-04-20T01:54:13;100143.84;;;5.59;52.10
59419;BME280;45224;50.904;6.038;2023-04-20T01:55:44;100136.06;;;5.56;52.44
59419;BME280;45224;50.904;6.038;2023-04-20T01:57:14;100127.47;;;5.54;52.23
59419;BME280;45224;50.904;6.038;2023-04-20T01:58:45;100128.03;;;5.44;51.87
59419;BME280;45224;50.904;6.038;2023-04-20T02:00:15;100123.44;;;5.30;52.59
59419;BME280;45224;50.904;6.038;2023-04-20T02:01:47;100124.38;;;5.34;52.45
59419;BME280;45224;50.904;6.038;2023-04-20T02:03:17;100120.88;;;5.30;52.81
59419;BME280;45224;50.904;6.038;2023-04-20T02:04:48;100120.28;;;5.41;51.99
59419;BME280;45224;50.904;6.038;2023-04-20T02:06:18;100122.03;;;5.42;52.07
59419;BME280;45224;50.904;6.038;2023-04-20T02:07:49;100113.66;;;5.49;51.89
59419;BME280;45224;50.904;6.038;2023-04-20T02:09:19;100113.44;;;5.40;51.74
59419;BME280;45224;50.904;6.038;2023-04-20T02:10:50;100110.25;;;5.50;51.52
59419;BME280;45224;50.904;6.038;2023-04-20T02:12:20;100120.34;;;5.44;51.99
59419;BME280;45224;50.904;6.038;2023-04-20T02:13:51;100105.97;;;5.51;51.31
59419;BME280;45224;50.904;6.038;2023-04-20T02:15:21;100115.31;;;5.47;51.51
59419;BME280;45224;50.904;6.038;2023-04-20T02:16:52;100109.56;;;5.56;51.46
59419;BME280;45224;50.904;6.038;2023-04-20T02:18:22;100112.88;;;5.52;51.14
59419;BME280;45224;50.904;6.038;2023-04-20T02:19:53;100119.88;;;5.57;51.43
59419;BME280;45224;50.904;6.038;2023-04-20T02:21:24;100118.31;;;5.64;51.19
59419;BME280;45224;50.904;6.038;2023-04-20T02:22:54;100102.75;;;5.58;50.90
59419;BME280;45224;50.904;6.038;2023-04-20T02:24:25;100103.47;;;5.52;50.88
59419;BME280;45224;50.904;6.038;2023-04-20T02:25:55;100102.31;;;5.41;51.36
59419;BME280;45224;50.904;6.038;2023-04-20T02:27:25;100108.91;;;5.31;51.64
59419;BME280;45224;50.904;6.038;2023-04-20T02:28:56;100092.78;;;5.35;51.12
59419;BME280;45224;50.904;6.038;2023-04-20T02:30:26;100102.47;;;5.47;51.24
59419;BME280;45224;50.904;6.038;2023-04-20T02:31:57;100101.25;;;5.33;51.16
59419;BME280;45224;50.904;6.038;2023-04-20T02:33:27;100094.31;;;5.28;51.15
59419;BME280;45224;50.904;6.038;2023-04-20T02:34:58;100097.72;;;5.27;51.76
59419;BME280;45224;50.904;6.038;2023-04-20T02:36:29;100093.72;;;5.39;51.38
59419;BME280;45224;50.904;6.038;2023-04-20T02:38:00;100091.00;;;5.33;51.24
59419;BME280;45224;50.904;6.038;2023-04-20T02:39:30;100086.00;;;5.37;51.20
59419;BME280;45224;50.904;6.038;2023-04-20T02:41:00;100088.31;;;5.28;51.35
59419;BME280;45224;50.904;6.038;2023-04-20T02:42:31;100077.53;;;5.40;51.68
59419;BME280;45224;50.904;6.038;2023-04-20T02:44:03;100065.84;;;5.51;50.71
59419;BME280;45224;50.904;6.038;2023-04-20T02:45:37;100067.72;;;5.58;50.94
59419;BME280;45224;50.904;6.038;2023-04-20T02:47:08;100065.84;;;5.51;50.68
59419;BME280;45224;50.904;6.038;2023-04-20T02:48:38;100070.50;;;5.33;51.25
59419;BME280;45224;50.904;6.038;2023-04-20T02:50:09;100069.78;;;5.38;51.75
59419;BME280;45224;50.904;6.038;2023-04-20T02:51:57;100064.16;;;5.53;51.16
59419;BME280;45224;50.904;6.038;2023-04-20T02:53:27;100069.53;;;5.62;51.07
59419;BME280;45224;50.904;6.038;2023-04-20T02:55:14;100052.63;;;5.71;50.77
59419;BME280;45224;50.904;6.038;2023-04-20T02:56:47;100056.31;;;5.47;51.48
59419;BME280;45224;50.904;6.038;2023-04-20T02:58:19;100058.59;;;5.70;50.73
59419;BME280;45224;50.904;6.038;2023-04-20T03:00:10;100057.59;;;5.64;51.64
59419;BME280;45224;50.904;6.038;2023-04-20T03:01:59;100053.25;;;5.62;51.72
59419;BME280;45224;50.904;6.038;2023-04-20T03:03:29;100052.16;;;5.52;52.48
59419;BME280;45224;50.904;6.038;2023-04-20T03:05:00;100052.16;;;5.52;51.82
59419;BME280;45224;50.904;6.038;2023-04-20T03:06:35;100043.22;;;5.71;51.90
59419;BME280;45224;50.904;6.038;2023-04-20T03:08:06;100042.97;;;5.59;52.29
59419;BME280;45224;50.904;6.038;2023-04-20T03:09:37;100038.69;;;5.59;52.54
59419;BME280;45224;50.904;6.038;2023-04-20T03:11:22;100033.16;;;5.44;52.56
59419;BME280;45224;50.904;6.038;2023-04-20T03:12:56;100024.56;;;5.42;52.91
59419;BME280;45224;50.904;6.038;2023-04-20T03:14:35;100019.69;;;5.51;52.88
59419;BME280;45224;50.904;6.038;2023-04-20T03:16:06;100014.63;;;5.54;53.14
59419;BME280;45224;50.904;6.038;2023-04-20T03:17:49;100016.22;;;5.51;52.71
59419;BME280;45224;50.904;6.038;2023-04-20T03:19:21;100021.03;;;5.37;53.44
59419;BME280;45224;50.904;6.038;2023-04-20T03:20:52;100019.84;;;5.57;52.48
59419;BME280;45224;50.904;6.038;2023-04-20T03:22:23;100018.31;;;5.65;52.62
59419;BME280;45224;50.904;6.038;2023-04-20T03:23:58;100012.88;;;5.53;52.66
59419;BME280;45224;50.904;6.038;2023-04-20T03:25:28;100014.69;;;5.57;52.55
59419;BME280;45224;50.904;6.038;2023-04-20T03:27:02;100010.94;;;5.43;52.91
59419;BME280;45224;50.904;6.038;2023-04-20T03:28:55;100013.97;;;5.26;53.14
59419;BME280;45224;50.904;6.038;2023-04-20T03:30:28;100009.03;;;5.36;52.63
59419;BME280;45224;50.904;6.038;2023-04-20T03:32:07;100011.75;;;5.42;52.67
59419;BME280;45224;50.904;6.038;2023-04-20T03:33:38;100016.66;;;5.33;53.05
59419;BME280;45224;50.904;6.038;2023-04-20T03:35:09;100021.66;;;5.26;53.23
59419;BME280;45224;50.904;6.038;2023-04-20T03:36:40;100016.06;;;5.43;53.00
59419;BME280;45224;50.904;6.038;2023-04-20T03:38:10;100012.66;;;5.44;52.68
59419;BME280;45224;50.904;6.038;2023-04-20T03:39:41;100012.56;;;5.41;53.17
59419;BME280;45224;50.904;6.038;2023-04-20T03:41:11;100009.78;;;5.30;53.22
59419;BME280;45224;50.904;6.038;2023-04-20T03:42:42;100008.13;;;5.34;53.35
59419;BME280;45224;50.904;6.038;2023-04-20T03:44:12;99998.84;;;5.39;53.65
59419;BME280;45224;50.904;6.038;2023-04-20T03:45:44;100003.63;;;5.23;53.54
59419;BME280;45224;50.904;6.038;2023-04-20T03:47:14;99992.41;;;5.20;54.03
59419;BME280;45224;50.904;6.038;2023-04-20T03:48:45;99995.25;;;5.30;53.51
59419;BME280;45224;50.904;6.038;2023-04-20T03:50:16;99992.22;;;5.47;53.24
59419;BME280;45224;50.904;6.038;2023-04-20T03:51:46;99991.47;;;5.16;54.16
59419;BME280;45224;50.904;6.038;2023-04-20T03:53:17;99987.50;;;5.29;53.56
59419;BME280;45224;50.904;6.038;2023-04-20T03:54:47;99988.44;;;5.33;53.80
59419;BME280;45224;50.904;6.038;2023-04-20T03:56:19;99990.41;;;5.43;53.30
59419;BME280;45224;50.904;6.038;2023-04-20T03:57:52;99991.25;;;5.42;53.43
59419;BME280;45224;50.904;6.038;2023-04-20T03:59:23;99989.56;;;5.44;53.47
59419;BME280;45224;50.904;6.038;2023-04-20T04:01:04;99988.44;;;5.33;53.30
59419;BME280;45224;50.904;6.038;2023-04-20T04:02:37;99992.22;;;5.47;53.43
59419;BME280;45224;50.904;6.038;2023-04-20T04:04:07;99999.28;;;5.56;53.32
59419;BME280;45224;50.904;6.038;2023-04-20T04:05:39;99990.56;;;5.49;53.24
59419;BME280;45224;50.904;6.038;2023-04-20T04:07:10;99987.91;;;5.44;53.47
59419;BME280;45224;50.904;6.038;2023-04-20T04:08:43;99998.25;;;5.49;53.31
59419;BME280;45224;50.904;6.038;2023-04-20T04:10:14;99989.59;;;5.45;53.68
59419;BME280;45224;50.904;6.038;2023-04-20T04:11:45;99990.56;;;5.49;53.17
59419;BME280;45224;50.904;6.038;2023-04-20T04:13:15;99988.19;;;5.58;53.24
59419;BME280;45224;50.904;6.038;2023-04-20T04:14:46;99992.13;;;5.44;53.90
59419;BME280;45224;50.904;6.038;2023-04-20T04:16:19;99984.38;;;5.41;53.86
59419;BME280;45224;50.904;6.038;2023-04-20T04:17:52;99988.88;;;5.49;53.59
59419;BME280;45224;50.904;6.038;2023-04-20T04:19:24;99993.97;;;5.48;54.27
59419;BME280;45224;50.904;6.038;2023-04-20T04:20:55;99994.09;;;5.54;54.58
59419;BME280;45224;50.904;6.038;2023-04-20T04:22:26;99997.88;;;5.69;53.80
59419;BME280;45224;50.904;6.038;2023-04-20T04:24:22;99988.97;;;5.54;55.15
59419;BME280;45224;50.904;6.038;2023-04-20T04:26:10;99992.03;;;5.76;54.63
59419;BME280;45224;50.904;6.038;2023-04-20T04:27:45;99982.66;;;5.78;54.76
59419;BME280;45224;50.904;6.038;2023-04-20T04:29:16;99999.00;;;5.81;55.90
59419;BME280;45224;50.904;6.038;2023-04-20T04:30:48;99994.63;;;5.77;55.88
59419;BME280;45224;50.904;6.038;2023-04-20T04:32:18;99995.00;;;5.56;56.86
59419;BME280;45224;50.904;6.038;2023-04-20T04:33:49;99997.13;;;5.38;56.95
59419;BME280;45224;50.904;6.038;2023-04-20T04:35:28;100000.06;;;5.18;57.94
59419;BME280;45224;50.904;6.038;2023-04-20T04:37:00;100002.03;;;4.95;59.29
59419;BME280;45224;50.904;6.038;2023-04-20T04:38:42;100002.44;;;5.10;60.08
59419;BME280;45224;50.904;6.038;2023-04-20T04:40:14;99996.75;;;5.22;59.55
59419;BME280;45224;50.904;6.038;2023-04-20T04:41:46;100005.81;;;5.09;60.57
59419;BME280;45224;50.904;6.038;2023-04-20T04:43:28;100009.28;;;5.11;60.77
59419;BME280;45224;50.904;6.038;2023-04-20T04:45:08;99996.59;;;5.16;61.15
59419;BME280;45224;50.904;6.038;2023-04-20T04:46:41;100004.47;;;4.90;61.61
59419;BME280;45224;50.904;6.038;2023-04-20T04:48:12;100011.19;;;4.85;63.69
59419;BME280;45224;50.904;6.038;2023-04-20T04:49:43;99997.81;;;4.97;64.94
59419;BME280;45224;50.904;6.038;2023-04-20T04:51:14;100001.34;;;4.69;65.33
59419;BME280;45224;50.904;6.038;2023-04-20T04:52:45;99994.41;;;4.65;66.30
59419;BME280;45224;50.904;6.038;2023-04-20T04:54:15;99994.22;;;4.57;68.00
59419;BME280;45224;50.904;6.038;2023-04-20T04:55:45;99988.06;;;4.52;69.36
59419;BME280;45224;50.904;6.038;2023-04-20T04:57:16;99998.53;;;4.60;70.13
59419;BME280;45224;50.904;6.038;2023-04-20T04:58:46;99998.44;;;4.56;70.84
59419;BME280;45224;50.904;6.038;2023-04-20T05:00:17;99999.84;;;4.45;71.65
59419;BME280;45224;50.904;6.038;2023-04-20T05:01:48;99989.19;;;4.30;72.08
59419;BME280;45224;50.904;6.038;2023-04-20T05:03:18;99989.34;;;4.36;72.36
59419;BME280;45224;50.904;6.038;2023-04-20T05:04:49;99999.50;;;4.33;73.72
59419;BME280;45224;50.904;6.038;2023-04-20T05:06:19;99985.34;;;4.15;76.05
59419;BME280;45224;50.904;6.038;2023-04-20T05:07:50;99988.91;;;4.20;75.92
59419;BME280;45224;50.904;6.038;2023-04-20T05:09:20;99996.19;;;4.37;77.42
59419;BME280;45224;50.904;6.038;2023-04-20T05:10:51;99982.13;;;4.23;78.38
59419;BME280;45224;50.904;6.038;2023-04-20T05:12:21;99990.81;;;4.28;78.04
59419;BME280;45224;50.904;6.038;2023-04-20T05:13:52;99993.53;;;4.03;79.25
59419;BME280;45224;50.904;6.038;2023-04-20T05:15:23;99993.22;;;4.22;79.80
59419;BME280;45224;50.904;6.038;2023-04-20T05:16:54;99999.56;;;4.06;81.62
59419;BME280;45224;50.904;6.038;2023-04-20T05:18:25;99980.06;;;4.09;82.28
59419;BME280;45224;50.904;6.038;2023-04-20T05:19:55;99979.34;;;4.15;82.48
59419;BME280;45224;50.904;6.038;2023-04-20T05:21:26;99976.16;;;4.22;82.69
59419;BME280;45224;50.904;6.038;2023-04-20T05:22:56;99987.53;;;4.32;82.26
59419;BME280;45224;50.904;6.038;2023-04-20T05:24:27;99984.16;;;4.33;82.84
59419;BME280;45224;50.904;6.038;2023-04-20T05:25:57;99981.63;;;4.34;83.90
59419;BME280;45224;50.904;6.038;2023-04-20T05:27:28;99974.31;;;4.48;83.06
59419;BME280;45224;50.904;6.038;2023-04-20T05:28:58;99981.53;;;4.63;82.49
59419;BME280;45224;50.904;6.038;2023-04-20T05:30:29;99975.09;;;4.78;81.20
59419;BME280;45224;50.904;6.038;2023-04-20T05:32:00;99982.00;;;4.80;82.23
59419;BME280;45224;50.904;6.038;2023-04-20T05:33:30;99977.06;;;4.86;81.31
59419;BME280;45224;50.904;6.038;2023-04-20T05:35:01;99970.19;;;4.85;82.13
59419;BME280;45224;50.904;6.038;2023-04-20T05:36:32;99972.22;;;4.99;81.16
59419;BME280;45224;50.904;6.038;2023-04-20T05:38:03;99972.38;;;5.05;81.54
59419;BME280;45224;50.904;6.038;2023-04-20T05:39:35;99963.94;;;5.07;80.73
59419;BME280;45224;50.904;6.038;2023-04-20T05:41:05;99971.06;;;5.21;80.57
59419;BME280;45224;50.904;6.038;2023-04-20T05:42:36;99971.19;;;5.25;80.13
59419;BME280;45224;50.904;6.038;2023-04-20T05:44:06;99972.94;;;5.28;79.05
59419;BME280;45224;50.904;6.038;2023-04-20T05:45:37;99963.53;;;5.27;80.37
59419;BME280;45224;50.904;6.038;2023-04-20T05:47:07;99962.69;;;5.26;79.59
59419;BME280;45224;50.904;6.038;2023-04-20T05:48:38;99970.63;;;5.37;80.31
59419;BME280;45224;50.904;6.038;2023-04-20T05:50:08;99973.22;;;5.39;79.51
59419;BME280;45224;50.904;6.038;2023-04-20T05:51:39;99970.88;;;5.48;79.31
59419;BME280;45224;50.904;6.038;2023-04-20T05:53:10;99964.97;;;5.52;79.63
59419;BME280;45224;50.904;6.038;2023-04-20T05:54:40;99968.47;;;5.54;80.04
59419;BME280;45224;50.904;6.038;2023-04-20T05:56:10;99969.38;;;5.58;79.57
59419;BME280;45224;50.904;6.038;2023-04-20T05:57:41;99975.59;;;5.67;79.10
59419;BME280;45224;50.904;6.038;2023-04-20T05:59:12;99977.34;;;5.69;78.86
59419;BME280;45224;50.904;6.038;2023-04-20T06:00:42;99974.59;;;5.61;80.38
59419;BME280;45224;50.904;6.038;2023-04-20T06:02:13;99977.78;;;5.52;81.27
59419;BME280;45224;50.904;6.038;2023-04-20T06:03:44;99971.19;;;5.60;80.05
59419;BME280;45224;50.904;6.038;2023-04-20T06:05:14;99978.97;;;5.66;80.12
59419;BME280;45224;50.904;6.038;2023-04-20T06:06:45;99975.38;;;5.58;80.74
59419;BME280;45224;50.904;6.038;2023-04-20T06:08:15;99982.47;;;5.69;79.85
59419;BME280;45224;50.904;6.038;2023-04-20T06:09:48;99979.91;;;5.69;79.36
59419;BME280;45224;50.904;6.038;2023-04-20T06:11:18;99968.03;;;5.74;80.20
59419;BME280;45224;50.904;6.038;2023-04-20T06:12:49;99968.38;;;5.51;79.85
59419;BME280;45224;50.904;6.038;2023-04-20T06:14:19;99968.66;;;5.27;79.89
59419;BME280;45224;50.904;6.038;2023-04-20T06:15:50;99964.31;;;5.24;80.77
59419;BME280;45224;50.904;6.038;2023-04-20T06:17:21;99961.03;;;5.28;80.77
59419;BME280;45224;50.904;6.038;2023-04-20T06:18:52;99964.66;;;5.38;80.67
59419;BME280;45224;50.904;6.038;2023-04-20T06:20:22;99961.09;;;5.32;80.60
59419;BME280;45224;50.904;6.038;2023-04-20T06:21:53;99956.59;;;5.23;81.55
59419;BME280;45224;50.904;6.038;2023-04-20T06:23:23;99957.41;;;5.20;81.22
59419;BME280;45224;50.904;6.038;2023-04-20T06:24:54;99967.81;;;5.26;82.63
59419;BME280;45224;50.904;6.038;2023-04-20T06:26:25;99962.81;;;5.33;81.24
59419;BME280;45224;50.904;6.038;2023-04-20T06:27:55;99968.94;;;5.38;81.08
59419;BME280;45224;50.904;6.038;2023-04-20T06:29:27;99968.09;;;5.39;81.35
59419;BME280;45224;50.904;6.038;2023-04-20T06:30:57;99967.94;;;5.33;81.61
59419;BME280;45224;50.904;6.038;2023-04-20T06:32:27;99963.81;;;5.39;80.01
59419;BME280;45224;50.904;6.038;2023-04-20T06:33:58;99963.19;;;5.48;79.72
59419;BME280;45224;50.904;6.038;2023-04-20T06:35:28;99962.28;;;5.46;79.15
59419;BME280;45224;50.904;6.038;2023-04-20T06:36:59;99951.78;;;5.35;78.71
59419;BME280;45224;50.904;6.038;2023-04-20T06:38:30;99951.25;;;5.50;78.75
59419;BME280;45224;50.904;6.038;2023-04-20T06:40:01;99949.66;;;5.55;78.53
59419;BME280;45224;50.904;6.038;2023-04-20T06:41:34;99956.81;;;5.69;77.83
59419;BME280;45224;50.904;6.038;2023-04-20T06:43:09;99953.63;;;5.79;77.33
59419;BME280;45224;50.904;6.038;2023-04-20T06:44:40;99952.00;;;5.84;79.25
59419;BME280;45224;50.904;6.038;2023-04-20T06:46:10;99944.44;;;5.90;77.64
59419;BME280;45224;50.904;6.038;2023-04-20T06:47:40;99950.63;;;5.98;77.03
59419;BME280;45224;50.904;6.038;2023-04-20T06:49:11;99941.28;;;6.02;77.30
59419;BME280;45224;50.904;6.038;2023-04-20T06:50:41;99945.72;;;6.08;76.80
59419;BME280;45224;50.904;6.038;2023-04-20T06:52:12;99935.44;;;6.08;76.29
59419;BME280;45224;50.904;6.038;2023-04-20T06:53:43;99946.00;;;6.23;74.70
59419;BME280;45224;50.904;6.038;2023-04-20T06:55:13;99937.47;;;6.24;75.00
59419;BME280;45224;50.904;6.038;2023-04-20T06:56:43;99939.31;;;6.31;75.20
59419;BME280;45224;50.904;6.038;2023-04-20T06:58:14;99931.66;;;6.34;74.99
59419;BME280;45224;50.904;6.038;2023-04-20T06:59:44;99929.16;;;6.37;75.25
59419;BME280;45224;50.904;6.038;2023-04-20T07:01:15;99930.91;;;6.38;75.02
59419;BME280;45224;50.904;6.038;2023-04-20T07:02:47;99933.47;;;6.38;75.00
59419;BME280;45224;50.904;6.038;2023-04-20T07:04:18;99930.78;;;6.32;75.60
59419;BME280;45224;50.904;6.038;2023-04-20T07:05:48;99930.00;;;6.35;75.88
59419;BME280;45224;50.904;6.038;2023-04-20T07:07:19;99931.03;;;6.45;76.27
59419;BME280;45224;50.904;6.038;2023-04-20T07:08:49;99920.88;;;6.51;75.20
59419;BME280;45224;50.904;6.038;2023-04-20T07:10:20;99925.53;;;6.26;75.25
59419;BME280;45224;50.904;6.038;2023-04-20T07:11:51;99922.13;;;6.27;74.49
59419;BME280;45224;50.904;6.038;2023-04-20T07:13:21;99923.75;;;6.22;74.03
59419;BME280;45224;50.904;6.038;2023-04-20T07:14:52;99917.97;;;6.34;73.38
59419;BME280;45224;50.904;6.038;2023-04-20T07:16:23;99912.81;;;6.32;74.59
59419;BME280;45224;50.904;6.038;2023-04-20T07:17:53;99916.25;;;6.34;74.88
59419;BME280;45224;50.904;6.038;2023-04-20T07:19:24;99910.44;;;6.42;74.32
59419;BME280;45224;50.904;6.038;2023-04-20T07:20:55;99926.03;;;6.54;74.12
59419;BME280;45224;50.904;6.038;2023-04-20T07:22:25;99915.66;;;6.46;74.02
59419;BME280;45224;50.904;6.038;2023-04-20T07:23:56;99920.63;;;6.38;73.57
59419;BME280;45224;50.904;6.038;2023-04-20T07:25:28;99923.09;;;6.32;72.88
59419;BME280;45224;50.904;6.038;2023-04-20T07:27:00;99918.31;;;6.51;72.83
59419;BME280;45224;50.904;6.038;2023-04-20T07:28:32;99922.75;;;6.60;72.18
59419;BME280;45224;50.904;6.038;2023-04-20T07:30:03;99921.97;;;6.64;72.84
59419;BME280;45224;50.904;6.038;2023-04-20T07:31:35;99922.03;;;6.68;72.86
59419;BME280;45224;50.904;6.038;2023-04-20T07:33:05;99910.97;;;6.72;72.29
59419;BME280;45224;50.904;6.038;2023-04-20T07:34:37;99916.06;;;6.69;72.84
59419;BME280;45224;50.904;6.038;2023-04-20T07:36:08;99912.72;;;6.73;72.89
59419;BME280;45224;50.904;6.038;2023-04-20T07:37:38;99915.34;;;6.78;73.41
59419;BME280;45224;50.904;6.038;2023-04-20T07:39:09;99917.34;;;6.46;74.09
59419;BME280;45224;50.904;6.038;2023-04-20T07:40:39;99919.41;;;6.65;74.50
59419;BME280;45224;50.904;6.038;2023-04-20T07:42:10;99915.88;;;6.60;74.55
59419;BME280;45224;50.904;6.038;2023-04-20T07:43:40;99919.00;;;6.44;75.32
59419;BME280;45224;50.904;6.038;2023-04-20T07:45:11;99915.25;;;6.26;75.48
59419;BME280;45224;50.904;6.038;2023-04-20T07:46:42;99910.19;;;6.29;75.95
59419;BME280;45224;50.904;6.038;2023-04-20T07:48:13;99914.03;;;6.51;75.02
59419;BME280;45224;50.904;6.038;2023-04-20T07:49:43;99910.44;;;6.42;77.51
59419;BME280;45224;50.904;6.038;2023-04-20T07:51:14;99912.31;;;6.52;76.44
59419;BME280;45224;50.904;6.038;2023-04-20T07:52:45;99908.16;;;6.58;75.62
59419;BME280;45224;50.904;6.038;2023-04-20T07:54:15;99909.13;;;6.65;75.38
59419;BME280;45224;50.904;6.038;2023-04-20T07:55:46;99910.88;;;6.66;76.77
59419;BME280;45224;50.904;6.038;2023-04-20T07:57:16;99908.16;;;6.58;76.01
59419;BME280;45224;50.904;6.038;2023-04-20T07:58:47;99909.09;;;6.62;76.52
59419;BME280;45224;50.904;6.038;2023-04-20T08:00:18;99903.63;;;6.45;77.56
59419;BME280;45224;50.904;6.038;2023-04-20T08:01:48;99903.66;;;6.47;78.20
59419;BME280;45224;50.904;6.038;2023-04-20T08:03:19;99904.31;;;6.35;78.57
59419;BME280;45224;50.904;6.038;2023-04-20T08:04:50;99905.25;;;6.40;78.29
59419;BME280;45224;50.904;6.038;2023-04-20T08:06:20;99894.78;;;6.29;79.67
59419;BME280;45224;50.904;6.038;2023-04-20T08:07:51;99904.91;;;6.23;80.53